Current | Forecast
Updated: 5:30 AM +07 on August 21, 2017
Observed at Kemerovo, Russia
Temperature 50°F
Humidity 94%
Dew Point 48°F
Wind WSW at 7 mph
Pressure 30.12 in (Steady)
Conditions Clear
Visibility -
UV N/A
Clouds
Yesterday's Maximum 63°F
Yesterday's Minimum 50°F approx.
Yesterday's Heating Degree Days 9 approx.
Sunrise6:00 AM +07
Sunset8:34 PM +07
Moon Rise5:03 AM +07
Moon Set8:24 PM +07
Moon PhaseMoon Phase
Waning Crescent
Raw METARMETAR UNEE 202230Z 24003MPS CAVOK 10/09 Q1020 R23/290155 NOSIG RMK QFE742


Monday
. High: 53° F.
Tuesday
. High: 62° F.
Wednesday
. High: 55° F.
Thursday
. High: 53° F.
Friday
. High: 59° F.
Saturday
. High: 69° F.
Sunday
. High: 73° F.
Monday
. High: 69° F.

Units: English | Metric

Find the Weather for any City, State or Zipcode, or Country:

U.S. State List | Severe Weather | Tropical Storms | Ski Conditions
United States | Canada | Central America | South America | Asia | Europe | Australia | Africa | Islands

Weather Underground

© Copyright 2017
The Weather Company, LLC